Airfield :
LOGIN :

Register | Disclaimer

   EN    FR    IT 

 










Legend :    VFR   Marginal VFR   IFR   Intensive IFR   Very Intensive IFR
Visi :
Ceiling :
>= 8 km
>= 3000ft
5 to 8 km
1000 to 3000 ft
1500m to 5 km
500 to 1000 ft
800 to 1500m
200 to 500 ft
< 800m
< 200 ft
Symbols :   Thunderstorms  Fog  Heavy snow  Heavy precipitations  Wind > 20 kt
SIGMETs :     Misc.  Thunderstorms  Icing  Turbulence  Mountain Waves  Volcanic Ashes







- Airport Elevation : 876 ft
- IATA code : MBX


LJMB - Maribor

CURRENT METAR :
  • 230330Z 32009KT 3000 RA BR SCT010 OVC033 17/15 Q1011

EXPIRED METARs :
  • 230300Z AUTO 36006KT 320V030 3100 +SHRA OVC041/// 16/15 Q1012
  • 230230Z AUTO 35008KT 320V020 6000 SHRA OVC047/// 17/15 Q1012
  • 230200Z AUTO 36007KT 330V030 9999 OVC049/// 19/15 Q1012
  • 230130Z AUTO 03006KT 010V070 9999 NSC 19/14 Q1011
  • 230100Z AUTO 04007KT 010V070 9999 NSC 18/15 Q1012

TAF TAF LJMB
Valid from the 23 at 03:00 until the 24 at 03:00 UTC


230200Z 2303/2403 35005KT 9999 SCT045 BKN100
TEMPO 2303/2315 34012KT SHRA SCT030TCU OVC035
BECMG 2315/2318 FEW045 SCT100
No reported NOTAMs for that airfield.



MET'MAP, your aeronautical weather chart ! - Copyright ORBIFLY December 2007 - Disclaimer

ORBIFLY MET'MAP TEAM :

Programming & Development : Alexandra Zaïnal
Concept & Development : Baudouin d'Aumeries
Co-Development & Prog : Marc-Olivier Méhu
Technical & hardware support : Manuel Goepfert

Contact : metmap@orbifly.com




SOURCES & CREDITS :

   NOAA